Roundhead, Ohio
Current Conditions -  °F | °C
As of 6:05 AM on Wednesday 22 Oct 2014 (Local Time) from KAOH Reporting Station
Overcast Overcast  
Wind Chill: 40°   Ceiling: 1000
Heat Index: 44°   Visibility: 10mi
Dew Point: 39°   Wind: 7mph
Humidity: 82%   Direction: 350°N
Pressure: 30.24"   Gusts: NA
Location:  40.56°N, 83.84°W
Report Text: KAOH 221005Z AUTO 35006KT 10SM BKN010 OVC025 07/04 A3024 RMK AO2 T00670039
Loading
Personal Weather Stations






























Interactive Weather Map
Tropical Storm Tracking
New forecast layout! Learn more

10-Day Weather Forecast

Advertisements
Track Severe Weather on mobile